createdAt,value
2022-12-25T00:01:38.462Z,19.83
2022-12-25T00:04:05.762Z,26.63
2022-12-25T00:06:32.943Z,19.17
2022-12-25T00:09:00.135Z,21.40
2022-12-25T00:11:27.593Z,18.70
2022-12-25T00:13:54.801Z,18.42
2022-12-25T00:16:25.704Z,18.35
2022-12-25T00:18:54.046Z,18.27
2022-12-25T00:21:22.162Z,24.08
2022-12-25T00:23:54.948Z,19.20
2022-12-25T00:26:23.013Z,16.55
2022-12-25T00:28:55.411Z,15.98
2022-12-25T00:31:24.307Z,15.93
2022-12-25T00:33:52.331Z,16.55
2022-12-25T00:36:22.500Z,17.00
2022-12-25T00:38:49.737Z,17.23
2022-12-25T00:41:40.965Z,16.38
2022-12-25T00:44:10.802Z,16.02
2022-12-25T00:46:38.290Z,16.27
2022-12-25T00:49:06.326Z,16.40
2022-12-25T00:51:33.976Z,20.17
2022-12-25T00:54:01.396Z,18.75
2022-12-25T00:56:28.598Z,18.10
2022-12-25T00:58:56.083Z,16.73
2022-12-25T01:01:23.466Z,17.25
2022-12-25T01:03:50.684Z,18.50
2022-12-25T01:06:17.951Z,16.90
2022-12-25T01:09:05.075Z,16.65
2022-12-25T01:11:32.339Z,16.30
2022-12-25T01:13:59.586Z,16.95
2022-12-25T01:16:28.016Z,17.48
2022-12-25T01:18:56.026Z,16.92
2022-12-25T01:21:23.826Z,15.70
2022-12-25T01:23:52.786Z,13.85
2022-12-25T01:26:26.114Z,14.70
2022-12-25T01:28:54.025Z,14.48
2022-12-25T01:31:24.365Z,14.57
2022-12-25T01:33:52.943Z,13.75
2022-12-25T01:36:25.653Z,13.85
2022-12-25T01:38:54.148Z,13.75
2022-12-25T01:41:24.364Z,14.45
2022-12-25T01:44:08.936Z,13.68
2022-12-25T01:46:36.661Z,13.55
2022-12-25T01:49:09.584Z,13.88
2022-12-25T01:52:14.922Z,13.43
2022-12-25T01:55:04.061Z,13.57
2022-12-25T01:57:37.631Z,12.60
2022-12-25T02:00:07.596Z,12.13
2022-12-25T02:02:36.158Z,13.20
2022-12-25T02:05:12.017Z,13.93
2022-12-25T02:07:41.306Z,12.85
2022-12-25T02:10:11.564Z,12.80
2022-12-25T02:12:39.870Z,13.82
2022-12-25T02:15:13.824Z,14.40
2022-12-25T02:18:11.441Z,12.50
2022-12-25T02:21:09.077Z,12.45
2022-12-25T02:23:57.787Z,12.60
2022-12-25T02:26:50.462Z,11.77
2022-12-25T02:29:29.071Z,9.07
2022-12-25T02:32:15.681Z,11.30
2022-12-25T02:35:05.813Z,12.15
2022-12-25T02:38:01.213Z,11.88
2022-12-25T02:40:43.122Z,11.48
2022-12-25T02:43:46.917Z,11.38
2022-12-25T02:46:37.692Z,12.23
2022-12-25T02:49:34.446Z,11.60
2022-12-25T02:52:38.680Z,11.30
2022-12-25T02:55:36.295Z,10.63
2022-12-25T02:58:30.204Z,10.90
2022-12-25T03:01:25.125Z,12.50
2022-12-25T03:04:14.762Z,13.63
2022-12-25T03:07:00.340Z,11.30
2022-12-25T03:09:54.441Z,12.65
2022-12-25T03:13:01.625Z,14.50
2022-12-25T03:15:47.630Z,14.43
2022-12-25T03:18:20.016Z,15.10
2022-12-25T03:21:05.826Z,14.60
2022-12-25T03:23:54.033Z,13.57
2022-12-25T03:26:39.990Z,15.52
2022-12-25T03:29:07.133Z,13.52
2022-12-25T03:31:48.270Z,12.68
2022-12-25T03:35:16.784Z,13.38
2022-12-25T03:38:51.659Z,13.10
2022-12-25T03:41:59.309Z,13.23
2022-12-25T03:45:14.993Z,14.88
2022-12-25T03:48:07.284Z,15.15
2022-12-25T03:51:12.998Z,15.18
2022-12-25T03:54:08.077Z,14.75
2022-12-25T03:56:56.660Z,14.13
2022-12-25T03:59:43.047Z,16.50
2022-12-25T04:02:29.015Z,14.82
2022-12-25T04:05:14.682Z,12.77
2022-12-25T04:08:00.255Z,13.40
2022-12-25T04:10:46.292Z,15.10
2022-12-25T04:13:31.785Z,16.30
2022-12-25T04:16:17.423Z,16.05
2022-12-25T04:19:03.532Z,15.50
2022-12-25T04:21:49.322Z,15.88
2022-12-25T04:24:34.930Z,15.70
2022-12-25T04:27:20.744Z,15.60
2022-12-25T04:30:06.200Z,18.15
2022-12-25T04:32:52.020Z,16.42
2022-12-25T04:35:37.957Z,14.38
2022-12-25T04:38:05.078Z,13.88
2022-12-25T04:40:33.423Z,13.23
2022-12-25T04:43:00.579Z,12.70
2022-12-25T04:45:27.774Z,11.93
2022-12-25T04:47:54.935Z,11.73
2022-12-25T04:50:22.096Z,11.85
2022-12-25T04:52:49.219Z,11.52
2022-12-25T04:55:16.400Z,11.18
2022-12-25T04:57:43.541Z,11.10
2022-12-25T05:00:11.410Z,11.65
2022-12-25T05:02:38.728Z,13.05
2022-12-25T05:05:06.334Z,14.25
2022-12-25T05:07:33.625Z,13.90
2022-12-25T05:10:00.812Z,13.50
2022-12-25T05:12:27.963Z,15.02
2022-12-25T05:14:55.113Z,16.17
2022-12-25T05:17:22.266Z,16.85
2022-12-25T05:19:49.418Z,20.85
2022-12-25T05:22:16.565Z,14.93
2022-12-25T05:24:43.676Z,14.20
2022-12-25T05:27:10.819Z,13.35
2022-12-25T05:29:37.977Z,13.40
2022-12-25T05:32:05.276Z,12.77
2022-12-25T05:34:32.435Z,14.98
2022-12-25T05:36:59.982Z,12.68
2022-12-25T05:39:27.134Z,15.57
2022-12-25T05:41:54.315Z,15.77
2022-12-25T05:44:21.530Z,15.68
2022-12-25T05:46:48.806Z,13.85
2022-12-25T05:49:16.428Z,13.85
2022-12-25T05:51:43.693Z,13.10
2022-12-25T05:54:10.842Z,13.38
2022-12-25T05:56:38.492Z,13.73
2022-12-25T05:59:05.749Z,13.57
2022-12-25T06:01:33.046Z,15.18
2022-12-25T06:04:00.412Z,14.70
2022-12-25T06:06:27.615Z,13.57
2022-12-25T06:08:55.262Z,13.18
2022-12-25T06:11:22.934Z,13.85
2022-12-25T06:13:52.042Z,13.00
2022-12-25T06:16:19.620Z,13.10
2022-12-25T06:18:52.039Z,15.90
2022-12-25T06:21:19.302Z,14.38
2022-12-25T06:23:46.590Z,13.05
2022-12-25T06:26:19.849Z,12.88
2022-12-25T06:28:47.545Z,14.18
2022-12-25T06:31:22.082Z,13.05
2022-12-25T06:33:49.581Z,11.77
2022-12-25T06:36:31.902Z,12.15
2022-12-25T06:39:03.550Z,12.83
2022-12-25T06:41:31.263Z,13.32
2022-12-25T06:44:07.302Z,13.48
2022-12-25T06:46:38.236Z,13.60
2022-12-25T06:49:05.959Z,12.95
2022-12-25T06:51:33.846Z,13.00
2022-12-25T06:54:04.179Z,12.65
2022-12-25T06:56:33.742Z,11.95
2022-12-25T06:59:05.459Z,13.05
2022-12-25T07:01:48.846Z,13.88
2022-12-25T07:04:38.708Z,13.77
2022-12-25T07:07:09.358Z,15.10
2022-12-25T07:09:39.476Z,16.65
2022-12-25T07:12:19.937Z,14.40
2022-12-25T07:14:50.319Z,13.35
2022-12-25T07:17:18.383Z,12.35
2022-12-25T07:19:49.366Z,12.77
2022-12-25T07:22:17.360Z,12.38
2022-12-25T07:24:44.815Z,12.75
2022-12-25T07:27:12.124Z,13.20
2022-12-25T07:29:39.279Z,12.77
2022-12-25T07:32:06.964Z,12.10
2022-12-25T07:34:34.195Z,13.55
2022-12-25T07:37:01.365Z,11.95
2022-12-25T07:39:28.901Z,12.52
2022-12-25T07:41:56.155Z,12.95
2022-12-25T07:44:23.301Z,13.57
2022-12-25T07:46:50.916Z,12.43
2022-12-25T07:49:18.911Z,13.25
2022-12-25T07:51:46.063Z,12.70
2022-12-25T07:54:13.241Z,12.07
2022-12-25T07:56:40.613Z,12.30
2022-12-25T07:59:07.793Z,12.85
2022-12-25T08:01:35.241Z,12.55
2022-12-25T08:04:03.051Z,14.00
2022-12-25T08:06:33.750Z,12.50
2022-12-25T08:09:11.097Z,12.68
2022-12-25T08:11:39.499Z,12.20
2022-12-25T08:14:09.037Z,12.30
2022-12-25T08:16:39.601Z,14.70
2022-12-25T08:19:08.173Z,15.48
2022-12-25T08:21:35.295Z,15.85
2022-12-25T08:24:03.194Z,13.40
2022-12-25T08:26:30.645Z,12.30
2022-12-25T08:28:57.783Z,11.73
2022-12-25T08:31:29.272Z,40.85
2022-12-25T08:34:09.777Z,15.27
2022-12-25T08:36:37.894Z,18.95
2022-12-25T08:39:05.377Z,15.45
2022-12-25T08:41:32.515Z,14.35
2022-12-25T08:43:59.733Z,12.55
2022-12-25T08:46:27.021Z,10.10
2022-12-25T08:48:54.330Z,9.70
2022-12-25T08:51:23.318Z,10.00
2022-12-25T08:53:53.257Z,9.80
2022-12-25T08:56:20.718Z,10.15
2022-12-25T08:58:47.920Z,10.10
2022-12-25T09:01:15.158Z,9.55
2022-12-25T09:03:43.410Z,9.60
2022-12-25T09:06:15.136Z,11.75
2022-12-25T09:08:48.617Z,10.93
2022-12-25T09:11:19.640Z,10.00
2022-12-25T09:13:47.665Z,11.73
2022-12-25T09:16:20.292Z,12.43
2022-12-25T09:18:48.540Z,11.93
2022-12-25T09:21:17.332Z,10.90
2022-12-25T09:23:45.142Z,17.65
2022-12-25T09:26:16.865Z,48.65
2022-12-25T09:28:50.623Z,13.25
2022-12-25T09:31:20.189Z,14.65
2022-12-25T09:33:47.523Z,13.63
2022-12-25T09:36:15.162Z,13.18
2022-12-25T09:38:42.592Z,11.52
2022-12-25T09:41:16.930Z,13.02
2022-12-25T09:44:18.911Z,14.32
2022-12-25T09:47:10.611Z,14.40
2022-12-25T09:49:52.990Z,15.20
2022-12-25T09:52:30.272Z,14.37
2022-12-25T09:55:19.924Z,13.52
2022-12-25T09:57:55.513Z,12.57
2022-12-25T10:00:35.902Z,12.68
2022-12-25T10:03:39.372Z,13.82
2022-12-25T10:06:15.565Z,13.30
2022-12-25T10:09:03.925Z,14.10
2022-12-25T10:12:24.651Z,14.13
2022-12-25T10:15:33.595Z,13.48
2022-12-25T10:18:28.079Z,12.85
2022-12-25T10:20:58.603Z,14.48
2022-12-25T10:23:35.723Z,14.50
2022-12-25T10:26:11.872Z,13.20
2022-12-25T10:28:44.730Z,12.80
2022-12-25T10:31:21.419Z,13.85
2022-12-25T10:33:51.485Z,15.00
2022-12-25T10:36:24.281Z,13.57
2022-12-25T10:38:52.355Z,14.50
2022-12-25T10:41:38.268Z,20.85
2022-12-25T10:44:20.469Z,24.17
2022-12-25T10:46:51.262Z,25.05
2022-12-25T10:49:22.989Z,19.92
2022-12-25T10:51:51.075Z,15.77
2022-12-25T10:54:35.641Z,15.50
2022-12-25T10:57:09.932Z,19.50
2022-12-25T10:59:50.631Z,15.48
2022-12-25T11:02:26.137Z,16.05
2022-12-25T11:05:29.363Z,17.10
2022-12-25T11:08:00.150Z,18.20
2022-12-25T11:10:42.562Z,23.70
2022-12-25T11:13:27.221Z,17.77
2022-12-25T11:16:25.023Z,15.40
2022-12-25T11:18:55.144Z,14.95
2022-12-25T11:21:32.851Z,16.17
2022-12-25T11:24:07.173Z,16.33
2022-12-25T11:26:51.022Z,18.30
2022-12-25T11:29:46.379Z,18.65
2022-12-25T11:32:24.071Z,27.98
2022-12-25T11:34:51.551Z,26.85
2022-12-25T11:37:30.772Z,20.25
2022-12-25T11:39:58.334Z,17.27
2022-12-25T11:42:45.161Z,17.02
2022-12-25T11:45:19.635Z,23.65
2022-12-25T11:47:59.778Z,21.67
2022-12-25T11:50:43.618Z,56.20
2022-12-25T11:53:27.912Z,21.50
2022-12-25T11:56:08.014Z,17.63
2022-12-25T11:58:46.102Z,15.13
2022-12-25T12:01:51.030Z,15.70
2022-12-25T12:04:42.575Z,13.50
2022-12-25T12:07:29.129Z,16.02
2022-12-25T12:10:21.555Z,17.35
2022-12-25T12:13:15.492Z,16.35
2022-12-25T12:15:47.245Z,15.38
2022-12-25T12:18:21.849Z,15.38
2022-12-25T12:21:22.560Z,17.65
2022-12-25T12:24:17.361Z,18.75
2022-12-25T12:26:58.842Z,19.33
2022-12-25T12:29:38.755Z,19.02
2022-12-25T12:32:40.307Z,16.48
2022-12-25T12:35:39.978Z,12.95
2022-12-25T12:38:23.317Z,13.00
2022-12-25T12:43:38.857Z,14.98
2022-12-25T12:46:30.687Z,14.15
2022-12-25T12:49:29.165Z,12.37
2022-12-25T12:52:23.024Z,14.27
2022-12-25T12:55:04.866Z,14.50
2022-12-25T12:57:39.616Z,14.23
2022-12-25T13:00:21.121Z,14.50
2022-12-25T13:03:25.824Z,17.48
2022-12-25T13:06:29.734Z,15.63
2022-12-25T13:09:18.531Z,14.70
2022-12-25T13:11:46.042Z,14.90
2022-12-25T13:14:21.874Z,16.65
2022-12-25T13:16:54.048Z,16.88
2022-12-25T13:19:27.937Z,18.07
2022-12-25T13:22:02.366Z,19.27
2022-12-25T13:24:33.489Z,18.45
2022-12-25T13:27:20.651Z,21.77
2022-12-25T13:29:47.806Z,22.67
2022-12-25T13:32:24.054Z,18.45
2022-12-25T13:34:53.076Z,15.20
2022-12-25T13:37:25.331Z,17.63
2022-12-25T13:40:00.183Z,21.23
2022-12-25T13:42:33.072Z,17.13
2022-12-25T13:45:24.478Z,20.27
2022-12-25T13:47:55.459Z,21.75
2022-12-25T13:50:32.015Z,18.52
2022-12-25T13:53:16.265Z,19.17
2022-12-25T13:55:54.437Z,16.42
2022-12-25T13:58:33.379Z,18.20
2022-12-25T14:01:02.848Z,18.67
2022-12-25T14:03:46.247Z,16.80
2022-12-25T14:06:24.305Z,16.25
2022-12-25T14:08:54.968Z,55.15
2022-12-25T14:11:25.715Z,29.42
2022-12-25T14:14:00.023Z,20.90
2022-12-25T14:16:28.182Z,21.00
2022-12-25T14:18:59.735Z,20.73
2022-12-25T14:21:33.225Z,18.52
2022-12-25T14:24:00.727Z,21.60
2022-12-25T14:26:31.778Z,22.15
2022-12-25T14:29:04.850Z,24.30
2022-12-25T14:31:33.563Z,22.35
2022-12-25T14:34:04.013Z,20.27
2022-12-25T14:36:33.972Z,22.77
2022-12-25T14:39:06.188Z,25.25
2022-12-25T14:41:41.073Z,20.83
2022-12-25T14:44:36.740Z,21.52
2022-12-25T14:47:18.520Z,22.17
2022-12-25T14:49:47.511Z,24.38
2022-12-25T14:52:41.641Z,24.05
2022-12-25T14:55:21.464Z,23.20
2022-12-25T14:57:55.417Z,22.98
2022-12-25T15:00:27.121Z,22.60
2022-12-25T15:02:57.949Z,22.98
2022-12-25T15:05:37.455Z,24.92
2022-12-25T15:08:12.402Z,41.13
2022-12-25T15:13:29.308Z,22.80
2022-12-25T15:16:13.395Z,20.73
2022-12-25T15:18:45.230Z,18.42
2022-12-25T15:21:31.131Z,18.02
2022-12-25T15:24:00.027Z,19.20
2022-12-25T15:26:31.349Z,19.80
2022-12-25T15:28:59.327Z,23.35
2022-12-25T15:31:32.773Z,22.00
2022-12-25T15:34:04.083Z,29.75
2022-12-25T15:36:32.156Z,35.08
2022-12-25T15:38:59.763Z,41.85
2022-12-25T15:41:52.077Z,33.25
2022-12-25T15:44:20.014Z,31.50
2022-12-25T15:46:47.599Z,29.98
2022-12-25T15:49:15.905Z,30.67
2022-12-25T15:51:44.450Z,29.33
2022-12-25T15:54:11.826Z,26.58
2022-12-25T15:56:50.956Z,23.33
2022-12-25T15:59:20.353Z,23.60
2022-12-25T16:01:53.406Z,23.83
2022-12-25T16:04:22.086Z,23.20
2022-12-25T16:06:50.687Z,24.38
2022-12-25T16:09:20.263Z,24.40
2022-12-25T16:11:49.252Z,22.80
2022-12-25T16:14:16.509Z,24.27
2022-12-25T16:16:43.752Z,25.13
2022-12-25T16:19:10.916Z,21.80
2022-12-25T16:21:42.835Z,25.52
2022-12-25T16:24:10.694Z,25.63
2022-12-25T16:26:37.874Z,26.45
2022-12-25T16:29:07.501Z,26.63
2022-12-25T16:31:37.256Z,25.77
2022-12-25T16:34:06.432Z,24.02
2022-12-25T16:36:36.206Z,34.75
2022-12-25T16:39:04.641Z,38.90
2022-12-25T16:41:32.213Z,26.60
2022-12-25T16:44:02.968Z,20.20
2022-12-25T16:46:30.225Z,20.92
2022-12-25T16:48:57.487Z,25.33
2022-12-25T16:51:24.659Z,24.63
2022-12-25T16:53:53.156Z,24.40
2022-12-25T16:56:28.336Z,25.02
2022-12-25T16:58:57.889Z,23.88
2022-12-25T17:01:25.811Z,25.17
2022-12-25T17:03:53.344Z,26.02
2022-12-25T17:06:25.719Z,25.60
2022-12-25T17:08:56.830Z,25.10
2022-12-25T17:11:27.379Z,26.25
2022-12-25T17:13:55.363Z,32.20
2022-12-25T17:16:27.229Z,36.15
2022-12-25T17:19:04.246Z,24.77
2022-12-25T17:21:35.360Z,24.23
2022-12-25T17:24:04.196Z,23.50
2022-12-25T17:26:32.646Z,24.10
2022-12-25T17:29:00.560Z,24.23
2022-12-25T17:31:28.492Z,23.15
2022-12-25T17:33:55.825Z,36.40
2022-12-25T17:36:23.805Z,22.77
2022-12-25T17:38:50.942Z,23.10
2022-12-25T17:41:19.805Z,21.50
2022-12-25T17:43:48.573Z,20.45
2022-12-25T17:46:19.470Z,20.45
2022-12-25T17:48:49.946Z,19.02
2022-12-25T17:51:24.162Z,18.85
2022-12-25T17:53:55.864Z,18.40
2022-12-25T17:56:24.914Z,19.58
2022-12-25T17:58:57.090Z,19.17
2022-12-25T18:01:27.687Z,20.03
2022-12-25T18:03:55.934Z,18.85
2022-12-25T18:06:26.215Z,19.00
2022-12-25T18:08:56.545Z,20.17
2022-12-25T18:11:29.263Z,19.38
2022-12-25T18:13:58.264Z,19.15
2022-12-25T18:16:27.366Z,19.63
2022-12-25T18:18:54.737Z,20.13
2022-12-25T18:21:22.765Z,20.65
2022-12-25T18:23:50.544Z,20.88
2022-12-25T18:26:20.327Z,21.48
2022-12-25T18:28:49.454Z,20.23
2022-12-25T18:31:22.055Z,20.10
2022-12-25T18:33:51.466Z,18.33
2022-12-25T18:36:23.121Z,19.02
2022-12-25T18:38:52.545Z,19.77
2022-12-25T18:41:22.241Z,19.73
2022-12-25T18:43:53.619Z,18.75
2022-12-25T18:46:27.548Z,20.02
2022-12-25T18:48:56.665Z,20.15
2022-12-25T18:51:24.615Z,20.67
2022-12-25T18:53:51.849Z,21.70
2022-12-25T18:56:19.704Z,22.50
2022-12-25T18:58:47.313Z,22.33
2022-12-25T19:01:22.338Z,22.42
2022-12-25T19:03:57.149Z,22.02
2022-12-25T19:06:29.749Z,20.25
2022-12-25T19:08:58.014Z,26.95
2022-12-25T19:11:25.205Z,21.42
2022-12-25T19:13:52.393Z,22.40
2022-12-25T19:16:19.598Z,20.20
2022-12-25T19:18:46.804Z,20.58
2022-12-25T19:21:13.973Z,20.88
2022-12-25T19:23:41.152Z,21.15
2022-12-25T19:26:10.735Z,22.83
2022-12-25T19:28:39.286Z,22.20
2022-12-25T19:31:09.358Z,23.08
2022-12-25T19:33:39.863Z,21.10
2022-12-25T19:36:14.195Z,21.70
2022-12-25T19:38:42.383Z,19.88
2022-12-25T19:41:17.025Z,21.65
2022-12-25T19:43:47.597Z,20.95
2022-12-25T19:46:19.874Z,19.38
2022-12-25T19:48:47.435Z,18.67
2022-12-25T19:51:21.229Z,18.05
2022-12-25T19:53:48.448Z,16.95
2022-12-25T19:56:16.675Z,16.67
2022-12-25T19:58:45.041Z,17.85
2022-12-25T20:01:16.760Z,14.63
2022-12-25T20:03:47.680Z,15.75
2022-12-25T20:06:26.401Z,15.35
2022-12-25T20:08:58.034Z,15.15
2022-12-25T20:11:27.474Z,16.00
2022-12-25T20:13:55.254Z,14.15
2022-12-25T20:16:24.430Z,15.18
2022-12-25T20:18:53.301Z,14.27
2022-12-25T20:21:23.418Z,13.25
2022-12-25T20:23:53.039Z,15.15
2022-12-25T20:26:25.506Z,13.57
2022-12-25T20:28:53.241Z,13.73
2022-12-25T20:31:24.067Z,13.70
2022-12-25T20:33:51.211Z,12.43
2022-12-25T20:36:18.869Z,12.82
2022-12-25T20:38:46.031Z,12.40
2022-12-25T20:41:29.565Z,13.57
2022-12-25T20:43:57.195Z,13.25
2022-12-25T20:46:25.897Z,14.15
2022-12-25T20:48:53.921Z,13.63
2022-12-25T20:51:25.066Z,12.80
2022-12-25T20:53:53.608Z,12.10
2022-12-25T20:56:24.831Z,13.57
2022-12-25T20:58:58.385Z,12.98
2022-12-25T21:01:28.082Z,13.15
2022-12-25T21:03:56.411Z,12.57
2022-12-25T21:06:24.037Z,12.52
2022-12-25T21:08:51.189Z,12.90
2022-12-25T21:11:18.543Z,13.13
2022-12-25T21:13:46.622Z,13.30
2022-12-25T21:16:18.610Z,14.55
2022-12-25T21:18:46.303Z,13.73
2022-12-25T21:21:14.873Z,12.95
2022-12-25T21:23:42.103Z,12.80
2022-12-25T21:26:25.852Z,12.43
2022-12-25T21:28:57.161Z,13.10
2022-12-25T21:31:25.601Z,14.73
2022-12-25T21:33:55.063Z,14.50
2022-12-25T21:36:32.013Z,14.23
2022-12-25T21:39:07.749Z,13.35
2022-12-25T21:41:37.906Z,13.00
2022-12-25T21:44:06.494Z,12.98
2022-12-25T21:46:34.548Z,13.73
2022-12-25T21:49:01.792Z,12.93
2022-12-25T21:51:51.720Z,14.23
2022-12-25T21:54:23.465Z,13.70
2022-12-25T21:56:50.847Z,12.93
2022-12-25T21:59:21.635Z,13.68
2022-12-25T22:01:51.298Z,13.18
2022-12-25T22:04:21.629Z,17.50
2022-12-25T22:07:07.508Z,14.27
2022-12-25T22:09:35.066Z,13.57
2022-12-25T22:12:21.421Z,13.60
2022-12-25T22:14:56.624Z,14.30
2022-12-25T22:17:47.145Z,14.68
2022-12-25T22:20:24.931Z,14.10
2022-12-25T22:22:53.032Z,13.75
2022-12-25T22:25:21.153Z,13.80
2022-12-25T22:27:49.825Z,14.25
2022-12-25T22:30:28.054Z,14.80
2022-12-25T22:32:55.912Z,15.07
2022-12-25T22:35:23.870Z,13.23
2022-12-25T22:37:51.366Z,21.88
2022-12-25T22:40:19.999Z,16.80
2022-12-25T22:42:51.430Z,13.55
2022-12-25T22:45:20.469Z,14.07
2022-12-25T22:47:47.648Z,15.63
2022-12-25T22:50:15.840Z,13.82
2022-12-25T22:52:45.591Z,15.43
2022-12-25T22:55:17.903Z,13.93
2022-12-25T22:57:45.061Z,14.97
2022-12-25T23:00:13.662Z,14.38
2022-12-25T23:02:41.027Z,14.80
2022-12-25T23:05:08.658Z,15.77
2022-12-25T23:07:35.928Z,15.88
2022-12-25T23:10:04.857Z,16.15
2022-12-25T23:12:50.897Z,15.80
2022-12-25T23:15:18.478Z,16.17
2022-12-25T23:18:04.199Z,16.90
2022-12-25T23:20:51.451Z,16.88
2022-12-25T23:23:37.450Z,17.75
2022-12-25T23:26:07.652Z,16.92
2022-12-25T23:29:00.276Z,18.10
2022-12-25T23:31:39.430Z,17.80
2022-12-25T23:34:07.823Z,18.05
2022-12-25T23:36:35.566Z,18.27
2022-12-25T23:39:09.548Z,16.13
2022-12-25T23:41:42.556Z,18.33
2022-12-25T23:44:13.528Z,17.50
2022-12-25T23:46:52.802Z,16.77
2022-12-25T23:49:25.560Z,17.42
2022-12-25T23:51:54.678Z,21.97
2022-12-25T23:54:26.909Z,18.45
2022-12-25T23:57:00.223Z,17.87
2022-12-25T23:59:30.157Z,16.80
